Time;durP1;ratioP1;P1;durP2;ratioP2;P2;SDS_P1;SDS_P2;PMS_P1;PMS_P2;Temp;Humidity;BMP_temperature;BMP_pressure;BME280_temperature;BME280_humidity;BME280_pressure;Samples;Min_cycle;Max_cycle;Signal;HPM_P1;HPM_P2
2023/06/28 00:02:22;;;;;;;1.58;0.90;;;;;;;;;;5054858;28;20104;-60
2023/06/28 00:04:48;;;;;;;5.00;1.50;;;;;;;;;;5054713;28;20121;-60
2023/06/28 00:07:15;;;;;;;2.40;1.23;;;;;;;;;;5055495;28;20021;-60
2023/06/28 00:09:41;;;;;;;2.25;1.13;;;;;;;;;;5054587;28;20112;-60
2023/06/28 00:12:07;;;;;;;2.25;1.17;;;;;;;;;;5054585;28;20427;-60
2023/06/28 00:14:33;;;;;;;1.60;0.75;;;;;;;;;;5054775;28;20045;-60
2023/06/28 00:16:59;;;;;;;1.33;0.80;;;;;;;;;;5054805;28;20517;-60
2023/06/28 00:19:28;;;;;;;3.72;1.52;;;;;;;;;;5054792;28;20033;-60
2023/06/28 00:21:55;;;;;;;3.83;1.35;;;;;;;;;;5054393;28;20078;-60
2023/06/28 00:24:21;;;;;;;3.10;1.20;;;;;;;;;;5054042;28;20025;-60
2023/06/28 00:26:47;;;;;;;2.10;1.13;;;;;;;;;;5054352;28;20116;-60
2023/06/28 00:29:13;;;;;;;4.35;1.50;;;;;;;;;;5054313;28;20033;-60
2023/06/28 00:31:38;;;;;;;2.00;0.75;;;;;;;;;;5054245;28;20067;-60
2023/06/28 00:34:04;;;;;;;2.17;1.08;;;;;;;;;;5055025;28;20027;-60
2023/06/28 00:36:31;;;;;;;1.70;0.90;;;;;;;;;;5055018;28;20021;-60
2023/06/28 00:38:56;;;;;;;2.67;1.45;;;;;;;;;;5054209;28;20029;-60
2023/06/28 00:41:22;;;;;;;1.90;0.95;;;;;;;;;;5054115;28;20370;-60
2023/06/28 00:43:48;;;;;;;4.85;1.48;;;;;;;;;;5054321;28;20033;-60
2023/06/28 00:46:14;;;;;;;2.45;0.90;;;;;;;;;;5054096;28;20017;-60
2023/06/28 00:48:40;;;;;;;2.47;1.23;;;;;;;;;;5053943;28;20021;-60
2023/06/28 00:51:06;;;;;;;5.00;1.70;;;;;;;;;;5054553;28;20435;-60
2023/06/28 00:53:32;;;;;;;3.83;1.52;;;;;;;;;;5053916;28;20418;-60
2023/06/28 00:55:59;;;;;;;1.85;1.15;;;;;;;;;;5053918;28;20032;-60
2023/06/28 00:58:26;;;;;;;2.58;1.38;;;;;;;;;;5053390;28;20029;-60
2023/06/28 01:00:52;;;;;;;2.20;1.38;;;;;;;;;;5053779;28;20028;-60
2023/06/28 01:03:18;;;;;;;3.08;1.13;;;;;;;;;;5053823;28;20100;-60
2023/06/28 01:05:49;;;;;;;2.88;1.27;;;;;;;;;;5054240;28;20372;-60
2023/06/28 01:08:15;;;;;;;1.65;0.98;;;;;;;;;;5053698;28;20075;-60
2023/06/28 01:10:42;;;;;;;1.95;0.85;;;;;;;;;;5053614;28;20090;-60
2023/06/28 01:13:08;;;;;;;2.63;1.45;;;;;;;;;;5054503;28;20500;-60
2023/06/28 01:15:34;;;;;;;4.63;1.17;;;;;;;;;;5054508;28;20367;-60
2023/06/28 01:18:01;;;;;;;2.13;1.30;;;;;;;;;;5054177;28;20107;-60
2023/06/28 01:20:30;;;;;;;2.40;1.23;;;;;;;;;;5054096;28;20028;-60
2023/06/28 01:22:56;;;;;;;2.42;1.23;;;;;;;;;;5054137;28;20083;-60
2023/06/28 01:25:23;;;;;;;3.30;1.58;;;;;;;;;;5054026;28;20048;-60
2023/06/28 01:27:49;;;;;;;4.90;1.70;;;;;;;;;;5053939;28;20020;-60
2023/06/28 01:30:15;;;;;;;3.75;1.33;;;;;;;;;;5053167;28;20514;-60
2023/06/28 01:32:43;;;;;;;2.53;1.23;;;;;;;;;;5053793;28;20363;-60
2023/06/28 01:35:10;;;;;;;2.63;1.63;;;;;;;;;;5053448;28;20139;-60
2023/06/28 01:37:36;;;;;;;1.92;1.20;;;;;;;;;;5053708;28;20443;-60
2023/06/28 01:40:04;;;;;;;2.30;1.20;;;;;;;;;;5053933;28;20025;-60
2023/06/28 01:42:30;;;;;;;4.65;1.75;;;;;;;;;;5054168;28;20079;-60
2023/06/28 01:44:56;;;;;;;3.10;1.25;;;;;;;;;;5053627;28;20021;-60
2023/06/28 01:47:22;;;;;;;2.20;1.50;;;;;;;;;;5054141;28;20017;-60
2023/06/28 01:49:48;;;;;;;2.13;1.08;;;;;;;;;;5053547;28;20025;-60
2023/06/28 01:52:14;;;;;;;3.83;1.30;;;;;;;;;;5053573;28;20087;-60
2023/06/28 01:54:40;;;;;;;2.65;1.38;;;;;;;;;;5053542;28;20033;-60
2023/06/28 01:57:06;;;;;;;2.80;1.50;;;;;;;;;;5053635;28;20493;-60
2023/06/28 01:59:32;;;;;;;4.32;1.40;;;;;;;;;;5054018;28;20083;-60
2023/06/28 02:01:58;;;;;;;3.47;1.73;;;;;;;;;;5053453;28;20032;-60
2023/06/28 02:04:24;;;;;;;3.80;1.95;;;;;;;;;;5053228;28;20062;-60
2023/06/28 02:06:50;;;;;;;1.83;1.17;;;;;;;;;;5053524;28;20029;-60
2023/06/28 02:09:16;;;;;;;3.25;1.38;;;;;;;;;;5053557;28;20114;-61
2023/06/28 02:11:42;;;;;;;2.83;1.75;;;;;;;;;;5056237;28;20489;-60
2023/06/28 02:14:08;;;;;;;2.20;1.23;;;;;;;;;;5056738;28;20033;-61
2023/06/28 02:16:34;;;;;;;3.08;1.42;;;;;;;;;;5056905;28;20024;-61
2023/06/28 02:19:02;;;;;;;2.85;1.60;;;;;;;;;;5057307;28;20044;-59
2023/06/28 02:21:28;;;;;;;3.28;1.65;;;;;;;;;;5057273;28;20096;-59
2023/06/28 02:23:54;;;;;;;4.82;1.70;;;;;;;;;;5056737;28;20484;-59
2023/06/28 02:26:20;;;;;;;3.75;2.20;;;;;;;;;;5057003;28;20031;-59
2023/06/28 02:28:46;;;;;;;3.28;1.98;;;;;;;;;;5056815;28;20029;-59
2023/06/28 02:31:12;;;;;;;3.95;1.75;;;;;;;;;;5056892;28;20025;-59
2023/06/28 02:33:38;;;;;;;8.43;1.55;;;;;;;;;;5056550;28;20017;-59
2023/06/28 02:36:04;;;;;;;4.10;1.95;;;;;;;;;;5056774;28;20033;-59
2023/06/28 02:38:30;;;;;;;3.13;1.73;;;;;;;;;;5056457;28;20024;-59
2023/06/28 02:40:56;;;;;;;3.00;2.33;;;;;;;;;;5057160;28;20021;-59
2023/06/28 02:43:22;;;;;;;2.15;1.40;;;;;;;;;;5056330;28;20037;-59
2023/06/28 02:45:48;;;;;;;2.05;1.35;;;;;;;;;;5056005;28;20025;-59
2023/06/28 02:48:14;;;;;;;5.30;1.83;;;;;;;;;;5056749;28;20017;-59
2023/06/28 02:50:40;;;;;;;3.13;1.88;;;;;;;;;;5056160;28;20382;-59
2023/06/28 02:53:06;;;;;;;3.05;2.15;;;;;;;;;;5056479;28;20021;-59
2023/06/28 02:55:32;;;;;;;3.55;1.98;;;;;;;;;;5056639;28;20025;-59
2023/06/28 02:57:58;;;;;;;3.30;2.15;;;;;;;;;;5056065;28;20021;-59
2023/06/28 03:00:24;;;;;;;2.50;1.52;;;;;;;;;;5056574;28;20027;-59
2023/06/28 03:02:50;;;;;;;2.38;1.40;;;;;;;;;;5055938;28;20017;-59
2023/06/28 03:05:16;;;;;;;2.92;1.55;;;;;;;;;;5056547;28;20036;-59
2023/06/28 03:07:42;;;;;;;6.40;2.20;;;;;;;;;;5056460;28;20370;-59
2023/06/28 03:10:08;;;;;;;3.90;1.65;;;;;;;;;;5055852;28;20382;-59
2023/06/28 03:12:34;;;;;;;2.95;1.70;;;;;;;;;;5055926;28;20087;-59
2023/06/28 03:15:00;;;;;;;2.30;1.90;;;;;;;;;;5055612;28;20041;-59
2023/06/28 03:17:26;;;;;;;2.00;1.27;;;;;;;;;;5055334;28;20024;-59
2023/06/28 03:19:52;;;;;;;3.90;1.50;;;;;;;;;;5056247;28;20504;-59
2023/06/28 03:22:18;;;;;;;2.42;1.50;;;;;;;;;;5055267;28;20398;-59
2023/06/28 03:24:44;;;;;;;2.42;1.60;;;;;;;;;;5055632;28;20029;-60
2023/06/28 03:27:10;;;;;;;3.58;1.40;;;;;;;;;;5056012;28;20033;-60
2023/06/28 03:29:36;;;;;;;3.40;1.92;;;;;;;;;;5055470;28;20033;-60
2023/06/28 03:32:02;;;;;;;2.55;1.33;;;;;;;;;;5056016;28;20465;-60
2023/06/28 03:34:28;;;;;;;2.58;1.50;;;;;;;;;;5056035;28;20025;-60
2023/06/28 03:36:54;;;;;;;3.13;1.40;;;;;;;;;;5056090;28;20075;-60
2023/06/28 03:39:20;;;;;;;3.13;2.00;;;;;;;;;;5055302;28;20033;-60
2023/06/28 03:41:45;;;;;;;3.00;1.85;;;;;;;;;;5055595;28;20025;-60
2023/06/28 03:44:13;;;;;;;2.72;1.63;;;;;;;;;;5055314;28;20025;-60
2023/06/28 03:46:39;;;;;;;5.43;1.55;;;;;;;;;;5054339;28;20483;-60
2023/06/28 03:49:05;;;;;;;2.33;1.63;;;;;;;;;;5055711;28;20041;-60
2023/06/28 03:51:31;;;;;;;2.53;1.70;;;;;;;;;;5055431;28;20367;-61
2023/06/28 03:53:57;;;;;;;3.58;1.45;;;;;;;;;;5055110;28;20025;-59
2023/06/28 03:56:23;;;;;;;2.67;1.60;;;;;;;;;;5055125;28;20024;-59
2023/06/28 03:58:50;;;;;;;2.85;1.45;;;;;;;;;;5055538;28;20025;-59
2023/06/28 04:01:16;;;;;;;4.00;2.28;;;;;;;;;;5055260;28;20024;-59
2023/06/28 04:03:42;;;;;;;4.82;2.05;;;;;;;;;;5055174;28;20107;-59
2023/06/28 04:06:08;;;;;;;2.90;1.90;;;;;;;;;;5054562;28;20025;-59
2023/06/28 04:08:34;;;;;;;2.83;1.50;;;;;;;;;;5055175;28;20025;-59
2023/06/28 04:11:00;;;;;;;3.20;1.98;;;;;;;;;;5054633;28;20029;-58
2023/06/28 04:13:26;;;;;;;3.90;1.38;;;;;;;;;;5054699;28;20432;-59
2023/06/28 04:15:53;;;;;;;6.13;1.75;;;;;;;;;;5055024;28;20072;-59
2023/06/28 04:18:19;;;;;;;3.78;1.90;;;;;;;;;;5054630;28;20536;-59
2023/06/28 04:20:45;;;;;;;3.65;1.73;;;;;;;;;;5054613;28;20025;-59
2023/06/28 04:23:11;;;;;;;2.90;1.30;;;;;;;;;;5055005;28;20096;-59
2023/06/28 04:25:37;;;;;;;2.38;1.33;;;;;;;;;;5054737;28;20021;-59
2023/06/28 04:28:04;;;;;;;2.92;1.92;;;;;;;;;;5055152;28;20024;-60
2023/06/28 04:30:31;;;;;;;3.83;1.80;;;;;;;;;;5054243;28;20383;-59
2023/06/28 04:32:57;;;;;;;3.03;1.50;;;;;;;;;;5053564;28;20025;-60
2023/06/28 04:35:23;;;;;;;4.82;1.65;;;;;;;;;;5054530;28;20040;-60
2023/06/28 04:37:50;;;;;;;4.93;2.05;;;;;;;;;;5054753;28;20039;-60
2023/06/28 04:40:16;;;;;;;2.42;1.50;;;;;;;;;;5054084;28;20021;-60
2023/06/28 04:42:42;;;;;;;2.17;1.23;;;;;;;;;;5054399;28;20447;-61
2023/06/28 04:45:09;;;;;;;5.68;2.08;;;;;;;;;;5054393;28;20024;-60
2023/06/28 04:47:38;;;;;;;2.78;1.92;;;;;;;;;;5054434;28;20107;-60
2023/06/28 04:50:04;;;;;;;2.63;1.50;;;;;;;;;;5053907;28;20029;-60
2023/06/28 04:52:30;;;;;;;4.80;2.03;;;;;;;;;;5053763;28;20113;-60
2023/06/28 04:54:56;;;;;;;3.38;1.52;;;;;;;;;;5054107;28;20104;-60
2023/06/28 04:57:23;;;;;;;3.10;1.90;;;;;;;;;;5053825;28;20067;-60
2023/06/28 04:59:49;;;;;;;3.22;1.90;;;;;;;;;;5052874;28;20033;-60
2023/06/28 05:02:15;;;;;;;2.70;1.77;;;;;;;;;;5053705;28;20025;-60
2023/06/28 05:04:42;;;;;;;2.88;1.90;;;;;;;;;;5053596;28;20021;-59
2023/06/28 05:07:09;;;;;;;3.30;1.60;;;;;;;;;;5054158;28;20065;-59
2023/06/28 05:09:36;;;;;;;2.50;1.65;;;;;;;;;;5053558;28;20060;-60
2023/06/28 05:12:02;;;;;;;5.05;1.70;;;;;;;;;;5053713;28;20029;-60
2023/06/28 05:14:29;;;;;;;2.20;1.58;;;;;;;;;;5053270;28;20091;-61
2023/06/28 05:16:55;;;;;;;2.05;1.45;;;;;;;;;;5054065;28;20013;-60
2023/06/28 05:19:22;;;;;;;1.98;1.17;;;;;;;;;;5053859;28;20382;-60
2023/06/28 05:21:48;;;;;;;4.03;1.65;;;;;;;;;;5053568;28;20029;-60
2023/06/28 05:24:16;;;;;;;5.22;1.55;;;;;;;;;;5053470;28;20025;-60
2023/06/28 05:26:42;;;;;;;2.60;1.88;;;;;;;;;;5053518;28;20075;-60
2023/06/28 05:29:08;;;;;;;2.38;1.42;;;;;;;;;;5053720;28;20028;-60
2023/06/28 05:31:35;;;;;;;2.63;1.55;;;;;;;;;;5053910;28;20029;-60
2023/06/28 05:34:01;;;;;;;5.90;1.55;;;;;;;;;;5053413;28;20063;-60
2023/06/28 05:36:27;;;;;;;2.95;1.52;;;;;;;;;;5054004;28;20056;-60
2023/06/28 05:38:53;;;;;;;3.00;1.60;;;;;;;;;;5053938;28;20032;-60
2023/06/28 05:41:19;;;;;;;4.78;2.00;;;;;;;;;;5053910;28;20112;-60
2023/06/28 05:43:46;;;;;;;3.45;1.90;;;;;;;;;;5054410;28;20124;-60
2023/06/28 05:46:12;;;;;;;3.47;1.63;;;;;;;;;;5057865;28;20083;-60
2023/06/28 05:48:38;;;;;;;2.20;1.38;;;;;;;;;;5057053;28;20056;-61
2023/06/28 05:51:12;;;;;;;4.35;1.75;;;;;;;;;;5057066;28;20543;-60
2023/06/28 05:53:38;;;;;;;3.17;1.60;;;;;;;;;;5057165;28;20029;-59
2023/06/28 05:56:05;;;;;;;3.15;1.65;;;;;;;;;;5058025;28;20025;-59
2023/06/28 05:58:31;;;;;;;5.93;1.63;;;;;;;;;;5057235;28;20031;-59
2023/06/28 06:00:57;;;;;;;2.60;1.38;;;;;;;;;;5057108;28;20367;-59
2023/06/28 06:03:23;;;;;;;3.35;1.85;;;;;;;;;;5057545;28;20024;-60
2023/06/28 06:05:49;;;;;;;4.68;2.00;;;;;;;;;;5056715;28;20396;-59
2023/06/28 06:08:16;;;;;;;3.85;1.98;;;;;;;;;;5056891;28;20054;-60
2023/06/28 06:10:42;;;;;;;2.58;1.52;;;;;;;;;;5056945;28;20061;-60
2023/06/28 06:13:09;;;;;;;2.03;1.30;;;;;;;;;;5056974;28;20025;-59
2023/06/28 06:15:35;;;;;;;2.90;1.25;;;;;;;;;;5057025;28;20157;-60
2023/06/28 06:18:01;;;;;;;2.50;1.27;;;;;;;;;;5056683;28;20025;-59
2023/06/28 06:20:27;;;;;;;3.97;1.85;;;;;;;;;;5057240;28;20027;-60
2023/06/28 06:22:53;;;;;;;2.63;1.48;;;;;;;;;;5056474;28;20379;-60
2023/06/28 06:25:19;;;;;;;2.53;1.73;;;;;;;;;;5057171;28;20029;-60
2023/06/28 06:27:45;;;;;;;2.67;1.55;;;;;;;;;;5057032;28;20118;-59
2023/06/28 06:30:11;;;;;;;3.13;2.05;;;;;;;;;;5056189;28;20052;-60
2023/06/28 06:32:37;;;;;;;5.53;1.65;;;;;;;;;;5056543;28;20449;-59
2023/06/28 06:35:03;;;;;;;1.73;0.95;;;;;;;;;;5056572;28;20029;-60
2023/06/28 06:37:29;;;;;;;2.80;1.77;;;;;;;;;;5056869;28;20056;-60
2023/06/28 06:39:55;;;;;;;3.65;1.92;;;;;;;;;;5056261;28;20419;-60
2023/06/28 06:42:21;;;;;;;2.78;1.50;;;;;;;;;;5057224;28;20021;-60
2023/06/28 06:44:47;;;;;;;39.90;8.18;;;;;;;;;;5056420;28;20101;-60
2023/06/28 06:47:13;;;;;;;2.72;1.45;;;;;;;;;;5057152;28;20028;-60
2023/06/28 06:49:39;;;;;;;2.78;1.50;;;;;;;;;;5055926;28;20040;-60
2023/06/28 06:52:05;;;;;;;2.53;1.40;;;;;;;;;;5056243;28;20029;-60
2023/06/28 06:54:31;;;;;;;2.35;1.40;;;;;;;;;;5055987;28;20017;-60
2023/06/28 06:56:58;;;;;;;2.20;1.42;;;;;;;;;;5055998;28;20040;-60
2023/06/28 06:59:24;;;;;;;2.65;1.50;;;;;;;;;;5056441;28;20068;-60
2023/06/28 07:01:51;;;;;;;2.42;1.33;;;;;;;;;;5055794;28;20455;-60
2023/06/28 07:04:17;;;;;;;2.80;1.20;;;;;;;;;;5056588;28;20020;-60
2023/06/28 07:06:47;;;;;;;4.63;1.25;;;;;;;;;;5056088;28;20155;-60
2023/06/28 07:09:16;;;;;;;2.78;1.23;;;;;;;;;;5055763;28;20040;-60
2023/06/28 07:11:42;;;;;;;1.95;1.08;;;;;;;;;;5055795;28;20111;-60
2023/06/28 07:14:08;;;;;;;2.72;1.20;;;;;;;;;;5055965;28;20025;-60
2023/06/28 07:16:34;;;;;;;4.95;1.83;;;;;;;;;;5056150;28;20033;-60
2023/06/28 07:19:00;;;;;;;1.90;1.20;;;;;;;;;;5055730;28;20025;-60
2023/06/28 07:21:26;;;;;;;4.45;1.65;;;;;;;;;;5056071;28;20113;-60
2023/06/28 07:23:54;;;;;;;1.70;1.15;;;;;;;;;;5055979;28;20432;-60
2023/06/28 07:26:20;;;;;;;2.92;1.52;;;;;;;;;;5055915;28;20375;-60
2023/06/28 07:28:46;;;;;;;1.33;0.85;;;;;;;;;;5055518;28;20033;-60
2023/06/28 07:31:12;;;;;;;1.77;1.15;;;;;;;;;;5055829;28;20036;-60
2023/06/28 07:33:40;;;;;;;2.17;1.27;;;;;;;;;;5055532;28;20421;-60
2023/06/28 07:36:06;;;;;;;2.05;1.10;;;;;;;;;;5055495;28;20163;-60
2023/06/28 07:38:32;;;;;;;2.85;1.55;;;;;;;;;;5055453;28;20032;-60
2023/06/28 07:40:58;;;;;;;2.70;1.30;;;;;;;;;;5055327;28;20166;-60
2023/06/28 07:43:24;;;;;;;2.35;1.00;;;;;;;;;;5055258;28;20040;-59
2023/06/28 07:45:52;;;;;;;3.67;1.15;;;;;;;;;;5055790;28;20398;-59
2023/06/28 07:48:17;;;;;;;4.18;1.30;;;;;;;;;;5055626;28;20021;-59
2023/06/28 07:50:44;;;;;;;2.08;1.10;;;;;;;;;;5055163;28;20102;-60
2023/06/28 07:53:10;;;;;;;3.35;1.15;;;;;;;;;;5056018;28;20029;-59
2023/06/28 07:55:37;;;;;;;3.05;1.33;;;;;;;;;;5055323;28;20028;-59
2023/06/28 07:58:03;;;;;;;2.53;1.45;;;;;;;;;;5055905;28;20021;-59
2023/06/28 08:00:30;;;;;;;4.68;2.00;;;;;;;;;;5054755;28;20095;-59
2023/06/28 08:02:57;;;;;;;1.85;1.23;;;;;;;;;;5055133;28;20486;-59
2023/06/28 08:05:23;;;;;;;3.17;1.65;;;;;;;;;;5055236;28;20079;-59
2023/06/28 08:07:49;;;;;;;2.22;1.30;;;;;;;;;;5054260;28;20036;-59
2023/06/28 08:10:15;;;;;;;3.50;1.92;;;;;;;;;;5054676;28;20056;-59
2023/06/28 08:12:41;;;;;;;3.47;1.10;;;;;;;;;;5054676;28;20068;-59
2023/06/28 08:15:07;;;;;;;2.42;1.00;;;;;;;;;;5054676;28;20041;-59
2023/06/28 08:17:33;;;;;;;2.97;1.17;;;;;;;;;;5055357;28;20021;-59
2023/06/28 08:19:59;;;;;;;3.85;1.50;;;;;;;;;;5054914;28;20037;-59
2023/06/28 08:22:25;;;;;;;3.55;1.60;;;;;;;;;;5054764;28;20400;-59
2023/06/28 08:24:51;;;;;;;3.25;1.33;;;;;;;;;;5054438;28;20367;-59
2023/06/28 08:27:17;;;;;;;1.88;1.02;;;;;;;;;;5055277;28;20040;-59
2023/06/28 08:29:43;;;;;;;3.25;1.30;;;;;;;;;;5054865;28;20032;-59
2023/06/28 08:32:12;;;;;;;4.07;1.50;;;;;;;;;;5054415;28;20065;-59
2023/06/28 08:34:38;;;;;;;2.15;1.30;;;;;;;;;;5054326;28;20017;-59
2023/06/28 08:37:04;;;;;;;2.30;1.35;;;;;;;;;;5054026;28;20021;-59
2023/06/28 08:39:30;;;;;;;3.30;1.42;;;;;;;;;;5054090;28;20083;-59
2023/06/28 08:41:56;;;;;;;5.05;1.42;;;;;;;;;;5054634;28;20405;-59
2023/06/28 08:44:23;;;;;;;2.30;1.20;;;;;;;;;;5054630;28;20371;-59
2023/06/28 08:46:50;;;;;;;2.28;1.20;;;;;;;;;;5054112;28;20027;-59
2023/06/28 08:49:17;;;;;;;2.05;1.33;;;;;;;;;;5054344;28;20025;-59
2023/06/28 08:51:43;;;;;;;2.80;1.02;;;;;;;;;;5053941;28;20033;-59
2023/06/28 08:54:10;;;;;;;4.18;1.40;;;;;;;;;;5052684;28;20036;-59
2023/06/28 08:56:36;;;;;;;2.20;1.38;;;;;;;;;;5054454;28;20021;-59
2023/06/28 08:59:03;;;;;;;2.42;0.93;;;;;;;;;;5053785;28;20489;-59
2023/06/28 09:01:29;;;;;;;2.92;1.48;;;;;;;;;;5053628;28;20043;-59
2023/06/28 09:03:56;;;;;;;3.58;1.50;;;;;;;;;;5053842;28;20085;-59
2023/06/28 09:06:22;;;;;;;3.03;1.42;;;;;;;;;;5054603;28;20028;-59
2023/06/28 09:08:48;;;;;;;3.15;1.30;;;;;;;;;;5053994;28;20439;-59
2023/06/28 09:11:16;;;;;;;7.70;1.88;;;;;;;;;;5053446;28;20032;-59
2023/06/28 09:13:42;;;;;;;3.88;1.45;;;;;;;;;;5053719;28;20024;-59
2023/06/28 09:16:10;;;;;;;4.13;1.17;;;;;;;;;;5054175;28;20455;-60
2023/06/28 09:18:37;;;;;;;2.50;1.75;;;;;;;;;;5053840;28;20443;-59
2023/06/28 09:21:03;;;;;;;4.40;1.02;;;;;;;;;;5054187;28;20036;-60
2023/06/28 09:23:30;;;;;;;3.67;1.83;;;;;;;;;;5053568;28;20057;-60
2023/06/28 09:25:56;;;;;;;2.72;1.45;;;;;;;;;;5053331;28;20025;-59
2023/06/28 09:28:23;;;;;;;3.95;1.55;;;;;;;;;;5054022;28;20032;-59
2023/06/28 09:30:58;;;;;;;2.45;1.70;;;;;;;;;;5054262;28;20025;-60
2023/06/28 09:33:24;;;;;;;2.50;1.48;;;;;;;;;;5053906;28;20074;-60
2023/06/28 09:35:57;;;;;;;3.35;1.63;;;;;;;;;;5053615;28;20021;-60
2023/06/28 09:38:23;;;;;;;2.58;1.33;;;;;;;;;;5053483;28;20026;-60
2023/06/28 09:40:55;;;;;;;2.47;1.33;;;;;;;;;;5053988;28;20028;-60
2023/06/28 09:43:21;;;;;;;2.10;1.05;;;;;;;;;;5053454;28;20433;-60
2023/06/28 09:45:48;;;;;;;4.63;1.42;;;;;;;;;;5053101;28;20025;-60
2023/06/28 09:48:13;;;;;;;6.68;1.60;;;;;;;;;;5054057;28;20025;-60
2023/06/28 09:50:44;;;;;;;2.55;1.40;;;;;;;;;;5053381;28;20090;-60
2023/06/28 09:53:15;;;;;;;4.90;1.08;;;;;;;;;;5053337;28;20021;-60
2023/06/28 09:55:42;;;;;;;2.50;1.10;;;;;;;;;;5053525;28;20166;-60
2023/06/28 09:58:12;;;;;;;2.45;1.38;;;;;;;;;;5053740;28;20021;-60
2023/06/28 10:00:38;;;;;;;2.97;1.38;;;;;;;;;;5054188;28;20032;-60
2023/06/28 10:03:08;;;;;;;1.73;1.00;;;;;;;;;;5053276;28;20033;-60
2023/06/28 10:05:35;;;;;;;2.75;1.80;;;;;;;;;;5053903;28;20028;-59
2023/06/28 10:08:03;;;;;;;2.80;1.38;;;;;;;;;;5053192;28;20021;-59
2023/06/28 10:10:29;;;;;;;3.60;1.90;;;;;;;;;;5053045;28;20033;-60
2023/06/28 10:12:56;;;;;;;3.15;1.48;;;;;;;;;;5053104;28;20387;-60
2023/06/28 10:15:23;;;;;;;3.35;1.70;;;;;;;;;;5053386;28;20052;-60
2023/06/28 10:17:50;;;;;;;2.95;1.55;;;;;;;;;;5053141;28;20538;-60
2023/06/28 10:20:17;;;;;;;4.53;1.73;;;;;;;;;;5053623;28;20407;-60
2023/06/28 10:22:43;;;;;;;1.95;1.35;;;;;;;;;;5053199;28;20025;-60
2023/06/28 10:25:10;;;;;;;2.13;1.13;;;;;;;;;;5053092;28;20021;-60
2023/06/28 10:27:36;;;;;;;7.30;1.63;;;;;;;;;;5053517;28;20412;-60
2023/06/28 10:30:03;;;;;;;2.10;1.10;;;;;;;;;;5053549;28;20029;-60
2023/06/28 10:32:29;;;;;;;3.13;1.67;;;;;;;;;;5055875;28;20033;-60
2023/06/28 10:34:57;;;;;;;2.72;1.45;;;;;;;;;;5056658;28;20021;-60
2023/06/28 10:37:24;;;;;;;5.13;2.10;;;;;;;;;;5056518;28;20021;-59
2023/06/28 10:39:51;;;;;;;8.45;1.58;;;;;;;;;;5056319;28;20025;-60
2023/06/28 10:42:18;;;;;;;2.78;1.48;;;;;;;;;;5056819;28;20025;-60
2023/06/28 10:44:51;;;;;;;4.28;1.08;;;;;;;;;;5056450;28;20032;-60
2023/06/28 10:47:17;;;;;;;1.85;1.35;;;;;;;;;;5057209;28;20104;-60
2023/06/28 10:49:43;;;;;;;5.78;1.75;;;;;;;;;;5056424;28;20111;-60
2023/06/28 10:52:16;;;;;;;3.22;1.55;;;;;;;;;;5056172;28;20036;-60
2023/06/28 10:54:42;;;;;;;4.55;1.20;;;;;;;;;;5055784;28;20028;-60
2023/06/28 10:57:10;;;;;;;4.03;1.70;;;;;;;;;;5056556;28;20013;-60
2023/06/28 10:59:36;;;;;;;3.28;1.50;;;;;;;;;;5056712;28;20032;-60
2023/06/28 11:02:02;;;;;;;3.22;1.15;;;;;;;;;;5056227;28;20405;-60
2023/06/28 11:04:28;;;;;;;3.45;1.70;;;;;;;;;;5056133;28;20021;-60
2023/06/28 11:07:03;;;;;;;3.33;1.45;;;;;;;;;;5056385;28;20025;-60
2023/06/28 11:09:29;;;;;;;3.00;1.10;;;;;;;;;;5056131;28;20463;-60
2023/06/28 11:11:59;;;;;;;3.05;1.20;;;;;;;;;;5055917;28;20037;-60
2023/06/28 11:14:25;;;;;;;3.07;1.53;;;;;;;;;;5055600;28;20049;-60
2023/06/28 11:16:52;;;;;;;2.20;1.38;;;;;;;;;;5055344;28;20024;-60
2023/06/28 11:19:22;;;;;;;5.53;1.23;;;;;;;;;;5055031;28;20523;-59
2023/06/28 11:22:08;;;;;;;3.15;1.38;;;;;;;;;;5055690;28;20044;-60
2023/06/28 11:24:40;;;;;;;4.65;1.42;;;;;;;;;;5055790;28;20029;-60
2023/06/28 11:27:17;;;;;;;2.80;1.38;;;;;;;;;;5056073;28;20431;-60
2023/06/28 11:29:57;;;;;;;5.88;1.60;;;;;;;;;;5055586;28;20032;-60
2023/06/28 11:32:24;;;;;;;;;;;;;;;;;;5055969;28;20112;-60
2023/06/28 11:34:50;;;;;;;3.20;1.52;;;;;;;;;;5055547;28;19904;-60
2023/06/28 11:37:17;;;;;;;2.28;1.30;;;;;;;;;;5055856;28;20543;-60
2023/06/28 11:39:46;;;;;;;8.80;1.13;;;;;;;;;;5055370;28;20025;-60
2023/06/28 11:42:13;;;;;;;4.43;1.98;;;;;;;;;;5054966;28;20029;-60
2023/06/28 11:44:46;;;;;;;9.80;1.20;;;;;;;;;;5055090;28;20036;-60
2023/06/28 11:47:12;;;;;;;4.50;1.15;;;;;;;;;;5055646;28;20021;-60
2023/06/28 11:49:38;;;;;;;3.72;1.40;;;;;;;;;;5055612;28;20037;-60
2023/06/28 11:52:04;;;;;;;4.05;1.42;;;;;;;;;;5054752;28;20025;-61
2023/06/28 11:54:33;;;;;;;4.32;1.30;;;;;;;;;;5055025;28;20025;-61
2023/06/28 11:57:00;;;;;;;3.70;1.10;;;;;;;;;;5055069;28;20029;-61
2023/06/28 11:59:29;;;;;;;4.18;1.27;;;;;;;;;;5054586;28;20025;-61
2023/06/28 12:02:03;;;;;;;4.75;1.92;;;;;;;;;;5054880;28;20363;-61
2023/06/28 12:04:29;;;;;;;5.47;1.77;;;;;;;;;;5055151;28;20021;-61
2023/06/28 12:06:55;;;;;;;2.03;1.10;;;;;;;;;;5055388;28;20025;-61
2023/06/28 12:09:23;;;;;;;3.03;1.02;;;;;;;;;;5054563;28;20343;-61
2023/06/28 12:11:53;;;;;;;2.78;1.08;;;;;;;;;;5054486;28;20036;-61
2023/06/28 12:14:20;;;;;;;4.28;1.13;;;;;;;;;;5054691;28;20107;-61
2023/06/28 12:16:46;;;;;;;2.67;1.30;;;;;;;;;;5054785;28;20387;-61
2023/06/28 12:19:16;;;;;;;1.90;1.25;;;;;;;;;;5054517;28;20058;-61
2023/06/28 12:21:42;;;;;;;3.80;1.92;;;;;;;;;;5055204;28;20056;-61
2023/06/28 12:24:12;;;;;;;3.85;1.73;;;;;;;;;;5054585;28;20033;-61
2023/06/28 12:26:38;;;;;;;2.17;1.38;;;;;;;;;;5055120;28;20025;-61
2023/06/28 12:29:10;;;;;;;2.35;1.30;;;;;;;;;;5055098;28;20098;-61
2023/06/28 12:31:45;;;;;;;2.17;1.27;;;;;;;;;;5054726;28;20025;-61
2023/06/28 12:34:11;;;;;;;1.77;1.23;;;;;;;;;;5054444;28;20443;-61
2023/06/28 12:36:40;;;;;;;3.50;1.27;;;;;;;;;;5054884;28;20119;-61
2023/06/28 12:39:07;;;;;;;3.92;1.00;;;;;;;;;;5054445;28;20079;-61
2023/06/28 12:41:33;;;;;;;2.97;1.25;;;;;;;;;;5054062;28;20029;-61
2023/06/28 12:43:59;;;;;;;2.08;1.08;;;;;;;;;;5053893;28;20421;-61
2023/06/28 12:46:28;;;;;;;8.57;4.90;;;;;;;;;;5054426;28;20021;-61
2023/06/28 12:48:55;;;;;;;1.75;1.02;;;;;;;;;;5053945;28;20120;-61
2023/06/28 12:51:21;;;;;;;1.80;1.15;;;;;;;;;;5054227;28;20428;-61
2023/06/28 12:53:47;;;;;;;3.13;1.52;;;;;;;;;;5053267;28;20048;-61
2023/06/28 12:56:13;;;;;;;2.35;1.25;;;;;;;;;;5054285;28;20100;-61
2023/06/28 12:58:39;;;;;;;2.15;1.33;;;;;;;;;;5053831;28;20032;-61
2023/06/28 13:01:05;;;;;;;4.32;2.17;;;;;;;;;;5054292;28;20017;-61
2023/06/28 13:03:31;;;;;;;4.32;1.00;;;;;;;;;;5053889;28;20107;-61
2023/06/28 13:05:56;;;;;;;4.03;1.52;;;;;;;;;;5053299;28;20032;-58
2023/06/28 13:08:25;;;;;;;2.20;1.25;;;;;;;;;;5054197;28;20017;-58
2023/06/28 13:10:51;;;;;;;2.65;1.38;;;;;;;;;;5053519;28;20453;-58
2023/06/28 13:13:17;;;;;;;2.63;1.38;;;;;;;;;;5053907;28;20053;-58
2023/06/28 13:15:43;;;;;;;2.85;1.50;;;;;;;;;;5053231;28;20048;-58
2023/06/28 13:18:09;;;;;;;2.75;1.35;;;;;;;;;;5054082;28;20456;-58
2023/06/28 13:20:34;;;;;;;2.05;1.25;;;;;;;;;;5053602;28;20067;-58
2023/06/28 13:23:00;;;;;;;4.20;1.23;;;;;;;;;;5053741;28;20025;-58
2023/06/28 13:25:26;;;;;;;2.45;1.17;;;;;;;;;;5053712;28;20021;-58
2023/06/28 13:27:52;;;;;;;3.35;1.10;;;;;;;;;;5053665;28;20021;-58
2023/06/28 13:30:19;;;;;;;2.00;1.35;;;;;;;;;;5053302;28;20033;-58
2023/06/28 13:32:45;;;;;;;2.65;1.40;;;;;;;;;;5053693;28;20025;-59
2023/06/28 13:35:11;;;;;;;2.40;1.52;;;;;;;;;;5053990;28;20410;-60
2023/06/28 13:37:37;;;;;;;2.90;1.05;;;;;;;;;;5053998;28;20462;-60
2023/06/28 13:40:03;;;;;;;2.38;1.02;;;;;;;;;;5053255;28;20023;-60
2023/06/28 13:42:29;;;;;;;2.85;1.05;;;;;;;;;;5054178;28;20071;-60
2023/06/28 13:44:55;;;;;;;2.35;1.52;;;;;;;;;;5053771;28;20029;-60
2023/06/28 13:47:21;;;;;;;2.17;1.20;;;;;;;;;;5053852;28;20017;-60
2023/06/28 13:49:48;;;;;;;2.47;1.30;;;;;;;;;;5053909;28;20065;-60
2023/06/28 13:52:16;;;;;;;2.97;1.38;;;;;;;;;;5054122;28;20029;-60
2023/06/28 13:54:42;;;;;;;4.20;1.40;;;;;;;;;;5053791;28;20064;-60
2023/06/28 13:57:08;;;;;;;2.45;1.20;;;;;;;;;;5053909;28;20056;-60
2023/06/28 13:59:34;;;;;;;2.20;1.20;;;;;;;;;;5053525;28;20029;-60
2023/06/28 14:02:00;;;;;;;2.63;1.17;;;;;;;;;;5053004;28;20063;-60
2023/06/28 14:04:26;;;;;;;1.67;0.85;;;;;;;;;;5052918;28;20026;-60
2023/06/28 14:06:52;;;;;;;5.30;1.30;;;;;;;;;;5057026;28;20036;-60
2023/06/28 14:09:18;;;;;;;3.03;1.35;;;;;;;;;;5057162;28;20029;-60
2023/06/28 14:11:44;;;;;;;2.05;1.05;;;;;;;;;;5056842;28;20108;-60
2023/06/28 14:14:10;;;;;;;2.22;0.80;;;;;;;;;;5056555;28;20025;-60
2023/06/28 14:16:35;;;;;;;2.40;1.40;;;;;;;;;;5057255;28;20021;-60
2023/06/28 14:19:02;;;;;;;1.95;0.88;;;;;;;;;;5057386;28;20083;-60
2023/06/28 14:21:28;;;;;;;2.55;0.98;;;;;;;;;;5056603;28;20029;-60
2023/06/28 14:23:54;;;;;;;1.85;1.00;;;;;;;;;;5056490;28;20021;-60
2023/06/28 14:26:20;;;;;;;2.38;1.50;;;;;;;;;;5056617;28;20312;-60
2023/06/28 14:28:46;;;;;;;2.70;1.20;;;;;;;;;;5056726;28;20021;-60
2023/06/28 14:31:15;;;;;;;2.70;0.90;;;;;;;;;;5056639;28;20104;-60
2023/06/28 14:33:47;;;;;;;2.97;1.20;;;;;;;;;;5057002;28;20109;-60
2023/06/28 14:36:13;;;;;;;2.80;1.48;;;;;;;;;;5056959;28;20017;-60
2023/06/28 14:38:39;;;;;;;2.38;1.15;;;;;;;;;;5056441;28;20055;-60
2023/06/28 14:41:05;;;;;;;2.63;1.08;;;;;;;;;;5056531;28;20584;-60